Time;durP1;ratioP1;P1;durP2;ratioP2;P2;SDS_P1;SDS_P2;PMS_P1;PMS_P2;Temp;Humidity;BMP_temperature;BMP_pressure;BME280_temperature;BME280_humidity;BME280_pressure;Samples;Min_cycle;Max_cycle;Signal;HPM_P1;HPM_P2
2022/02/11 00:01:35;;;;;;;2.70;1.50;;;6.10;99.90;;;;;;4927454;29;20541;-85
2022/02/11 00:04:44;;;;;;;1.67;1.57;;;6.00;99.90;;;;;;4940271;29;21062;-86
2022/02/11 00:07:09;;;;;;;2.87;1.80;;;6.20;99.90;;;;;;4926065;29;20458;-86
2022/02/11 00:09:39;;;;;;;1.60;1.47;;;6.30;99.90;;;;;;4925834;29;20499;-87
2022/02/11 00:12:15;;;;;;;2.07;1.90;;;6.20;99.90;;;;;;4955124;29;20474;-88
2022/02/11 00:17:30;;;;;;;2.63;2.43;;;6.40;99.90;;;;;;4940378;29;20470;-88
2022/02/11 00:20:09;;;;;;;2.60;2.40;;;6.20;99.90;;;;;;4972954;23;20511;-86
2022/02/11 00:22:56;;;;;;;4.63;2.47;;;6.10;99.90;;;;;;4931786;29;20472;-88
2022/02/11 00:25:53;;;;;;;3.17;2.67;;;6.30;99.90;;;;;;4942396;29;20562;-86
2022/02/11 00:37:41;;;;;;;2.90;2.60;;;6.40;99.90;;;;;;4937374;29;21057;-86
2022/02/11 01:05:43;;;;;;;;;;;;;;;;;;;;;
2022/02/11 01:13:28;;;;;;;4.07;3.77;;;6.00;99.90;;;;;;4862020;29;20409;-86
2022/02/11 01:57:24;;;;;;;;;;;;;;;;;;;;;
2022/02/11 02:11:37;;;;;;;7.53;4.27;;;5.60;99.90;;;;;;4910132;29;20489;-84
2022/02/11 02:57:04;;;;;;;9.10;6.73;;;5.60;99.90;;;;;;4813099;29;20500;-88
2022/02/11 03:00:59;;;;;;;10.93;5.77;;;5.60;99.90;;;;;;4760315;29;20478;-86
2022/02/11 05:05:20;;;;;;;;;;;;;;;;;;;;;
2022/02/11 05:11:54;;;;;;;9.43;5.03;;;5.60;99.90;;;;;;4901263;29;20540;-86
2022/02/11 05:15:09;;;;;;;9.60;5.27;;;5.60;99.90;;;;;;4886092;29;21007;-86
2022/02/11 05:22:37;;;;;;;6.93;5.33;;;5.60;99.90;;;;;;4896769;29;20513;-86
2022/02/11 05:26:08;;;;;;;12.27;5.87;;;5.60;99.90;;;;;;4895581;29;20524;-87
2022/02/11 05:29:01;;;;;;;11.73;6.13;;;5.60;99.90;;;;;;4855461;29;20954;-87
2022/02/11 05:35:54;;;;;;;10.27;5.63;;;5.70;99.90;;;;;;4857141;29;20480;-86
2022/02/11 05:42:18;;;;;;;9.50;6.47;;;5.70;99.90;;;;;;4921404;29;20484;-88
2022/02/11 05:49:30;;;;;;;11.73;6.07;;;5.70;99.90;;;;;;4916723;29;21005;-86
2022/02/11 05:52:26;;;;;;;7.97;5.37;;;5.80;99.90;;;;;;4899998;29;20544;-87
2022/02/11 05:55:26;;;;;;;;;;;;;;;;;;;;;
2022/02/11 06:01:55;;;;;;;;;;;;;;;;;;;;;
2022/02/11 06:05:59;;;;;;;10.97;5.90;;;5.80;99.90;;;;;;4826615;29;20467;-86
2022/02/11 06:08:46;;;;;;;6.40;4.53;;;5.80;99.90;;;;;;4786616;29;20487;-86
2022/02/11 06:12:12;;;;;;;8.20;4.90;;;5.90;99.90;;;;;;4778017;30;20933;-87
2022/02/11 06:16:01;;;;;;;;;;;;;;;;;;;;;
2022/02/11 06:18:57;;;;;;;10.60;4.47;;;5.90;99.90;;;;;;4749922;23;20526;-82
2022/02/11 06:21:24;;;;;;;9.30;4.67;;;5.90;99.90;;;;;;4990248;28;20837;-84
2022/02/11 06:23:55;;;;;;;10.17;4.77;;;5.90;99.90;;;;;;4974960;28;21067;-84
2022/02/11 06:26:25;;;;;;;9.97;4.47;;;5.90;99.90;;;;;;4983699;28;20543;-85
2022/02/11 06:28:53;;;;;;;7.03;3.87;;;5.90;99.90;;;;;;4970732;28;20876;-84
2022/02/11 06:31:20;;;;;;;11.77;4.93;;;5.90;99.90;;;;;;4974117;28;20456;-85
2022/02/11 06:33:46;;;;;;;6.77;3.90;;;5.90;99.90;;;;;;4976381;28;20474;-85
2022/02/11 06:36:13;;;;;;;7.33;3.57;;;5.90;99.90;;;;;;4993560;28;20460;-85
2022/02/11 06:38:40;;;;;;;8.47;5.20;;;5.90;99.90;;;;;;4985564;28;20464;-86
2022/02/11 06:41:07;;;;;;;11.93;4.90;;;5.90;99.90;;;;;;4971642;28;20480;-83
2022/02/11 06:43:34;;;;;;;10.17;4.60;;;5.90;99.90;;;;;;4970816;28;20476;-84
2022/02/11 06:46:04;;;;;;;9.87;4.20;;;5.90;99.90;;;;;;4974558;28;20456;-85
2022/02/11 06:48:33;;;;;;;6.27;3.80;;;6.00;99.90;;;;;;4967217;28;20486;-84
2022/02/11 06:51:00;;;;;;;8.10;4.30;;;6.00;99.90;;;;;;4989499;28;20476;-84
2022/02/11 06:53:27;;;;;;;10.50;4.03;;;5.90;99.90;;;;;;4975248;28;20444;-83
2022/02/11 06:55:53;;;;;;;7.50;4.20;;;6.00;99.90;;;;;;4976695;28;20480;-85
2022/02/11 06:58:21;;;;;;;8.53;4.10;;;6.00;99.90;;;;;;4965239;28;20835;-84
2022/02/11 07:00:50;;;;;;;6.80;3.50;;;6.00;99.90;;;;;;4975183;28;20927;-86
2022/02/11 07:03:17;;;;;;;6.30;3.43;;;6.00;99.90;;;;;;4978746;28;20538;-85
2022/02/11 07:05:45;;;;;;;11.03;4.10;;;6.10;99.90;;;;;;4978378;28;20685;-84
2022/02/11 07:08:12;;;;;;;8.40;3.93;;;6.10;99.90;;;;;;4970700;28;20460;-82
2022/02/11 07:10:39;;;;;;;7.73;3.90;;;6.10;99.90;;;;;;4973977;28;20854;-84
2022/02/11 07:13:13;;;;;;;5.80;3.10;;;6.10;99.90;;;;;;4984191;28;20455;-85
2022/02/11 07:15:43;;;;;;;7.70;4.13;;;6.10;99.90;;;;;;4976469;28;20483;-84
2022/02/11 07:18:11;;;;;;;13.33;4.30;;;6.20;99.90;;;;;;4978867;28;20456;-85
2022/02/11 07:20:40;;;;;;;8.53;3.80;;;6.20;99.90;;;;;;4985192;28;20491;-87
2022/02/11 07:23:07;;;;;;;9.07;4.10;;;6.20;99.90;;;;;;4981146;28;20444;-83
2022/02/11 07:25:35;;;;;;;7.57;3.20;;;6.20;99.90;;;;;;4979468;28;20962;-83
2022/02/11 07:28:02;;;;;;;11.37;4.53;;;6.30;99.90;;;;;;4991415;28;20542;-82
2022/02/11 07:30:30;;;;;;;5.73;3.30;;;6.30;99.90;;;;;;4980777;28;20523;-83
2022/02/11 07:32:57;;;;;;;13.40;5.13;;;6.30;99.90;;;;;;4988329;28;20467;-85
2022/02/11 07:35:24;;;;;;;8.30;3.67;;;6.30;99.90;;;;;;4978918;28;20492;-85
2022/02/11 07:37:51;;;;;;;16.10;4.17;;;6.30;99.90;;;;;;4980552;28;20538;-82
2022/02/11 07:40:18;;;;;;;8.70;2.60;;;6.30;99.90;;;;;;4971599;28;20571;-84
2022/02/11 07:42:47;;;;;;;6.33;2.90;;;6.30;99.90;;;;;;4990343;28;20817;-82
2022/02/11 07:45:16;;;;;;;7.30;3.20;;;6.30;99.90;;;;;;4983811;28;20452;-84
2022/02/11 07:47:43;;;;;;;9.57;3.00;;;6.40;99.90;;;;;;5000588;28;20448;-83
2022/02/11 07:50:10;;;;;;;9.17;3.23;;;6.40;99.90;;;;;;4990106;28;20486;-83
2022/02/11 07:52:37;;;;;;;6.13;3.50;;;6.40;99.90;;;;;;4986463;28;20478;-85
2022/02/11 07:55:05;;;;;;;10.70;3.33;;;6.40;99.90;;;;;;4980209;28;20490;-84
2022/02/11 07:57:32;;;;;;;4.70;3.50;;;6.40;99.90;;;;;;4968040;28;20471;-84
2022/02/11 08:00:04;;;;;;;6.23;3.23;;;6.40;99.90;;;;;;4965302;28;21056;-85
2022/02/11 08:02:34;;;;;;;6.17;2.70;;;6.40;99.90;;;;;;4981914;28;20484;-84
2022/02/11 08:05:01;;;;;;;11.07;4.50;;;6.40;99.90;;;;;;4965654;28;20498;-85
2022/02/11 08:07:29;;;;;;;10.50;4.43;;;6.50;99.90;;;;;;4981361;28;20474;-83
2022/02/11 08:09:55;;;;;;;11.30;5.40;;;6.50;99.90;;;;;;4967244;28;20580;-83
2022/02/11 08:12:22;;;;;;;7.73;3.20;;;6.70;99.90;;;;;;4980007;28;20464;-83
2022/02/11 08:14:50;;;;;;;6.00;4.13;;;6.70;99.90;;;;;;4962362;28;21017;-84
2022/02/11 08:17:17;;;;;;;6.97;3.00;;;6.60;99.90;;;;;;4965997;28;20531;-84
2022/02/11 08:19:44;;;;;;;9.90;4.90;;;6.60;99.90;;;;;;4983130;28;20526;-83
2022/02/11 08:22:11;;;;;;;7.17;3.37;;;6.70;99.90;;;;;;4965330;28;20524;-86
2022/02/11 08:24:37;;;;;;;8.80;3.10;;;6.80;99.90;;;;;;4975961;28;20462;-84
2022/02/11 08:27:05;;;;;;;13.50;3.70;;;6.80;99.90;;;;;;4971151;28;20488;-83
2022/02/11 08:29:35;;;;;;;4.90;2.70;;;6.70;99.90;;;;;;4967496;28;20557;-84
2022/02/11 08:32:03;;;;;;;10.47;3.67;;;6.70;99.90;;;;;;4967167;28;20464;-86
2022/02/11 08:34:29;;;;;;;5.97;3.23;;;6.70;99.90;;;;;;4963423;28;20995;-83
2022/02/11 08:36:57;;;;;;;10.10;3.10;;;6.70;99.90;;;;;;4967908;28;20962;-83
2022/02/11 08:39:24;;;;;;;8.20;3.53;;;6.70;99.90;;;;;;4963198;28;20471;-82
2022/02/11 08:41:50;;;;;;;6.57;2.67;;;6.80;99.90;;;;;;4962582;28;20593;-84
2022/02/11 08:44:17;;;;;;;6.97;3.00;;;6.80;99.90;;;;;;4967071;28;20459;-83
2022/02/11 08:46:44;;;;;;;5.97;2.97;;;7.00;99.90;;;;;;4965271;28;20483;-82
2022/02/11 08:49:11;;;;;;;7.20;2.70;;;7.00;99.90;;;;;;4978332;28;20482;-82
2022/02/11 08:51:38;;;;;;;5.87;2.90;;;7.10;99.90;;;;;;4977885;28;20468;-85
2022/02/11 08:54:07;;;;;;;6.30;2.90;;;7.00;99.90;;;;;;4961832;28;21935;-84
2022/02/11 08:56:38;;;;;;;10.37;3.17;;;7.10;99.90;;;;;;4975949;28;20488;-84
2022/02/11 08:59:06;;;;;;;10.93;4.53;;;7.30;99.90;;;;;;4960228;28;20463;-83
2022/02/11 09:01:33;;;;;;;6.17;3.30;;;7.30;99.90;;;;;;4984586;28;21013;-83
2022/02/11 09:04:00;;;;;;;10.50;3.87;;;7.20;99.90;;;;;;4979989;28;20536;-83
2022/02/11 09:06:27;;;;;;;9.60;4.20;;;7.10;99.90;;;;;;4969087;28;20546;-83
2022/02/11 09:08:54;;;;;;;7.73;2.80;;;7.10;99.90;;;;;;4964428;28;20494;-82
2022/02/11 09:11:21;;;;;;;10.53;3.07;;;7.20;99.90;;;;;;4971089;28;20475;-84
2022/02/11 09:13:50;;;;;;;12.17;3.70;;;7.10;99.90;;;;;;4968710;28;20456;-82
2022/02/11 09:16:18;;;;;;;9.97;3.07;;;7.10;99.90;;;;;;4967934;28;20495;-83
2022/02/11 09:18:45;;;;;;;11.70;4.20;;;7.10;99.90;;;;;;4966179;28;20983;-83
2022/02/11 09:21:12;;;;;;;7.90;3.03;;;7.10;99.90;;;;;;4959596;28;20540;-84
2022/02/11 09:23:39;;;;;;;7.53;3.20;;;7.10;99.90;;;;;;4961424;28;20453;-83
2022/02/11 09:26:06;;;;;;;12.97;3.57;;;7.30;99.90;;;;;;4960037;28;20464;-85
2022/02/11 09:28:33;;;;;;;7.80;3.50;;;7.40;99.90;;;;;;4961839;29;20467;-82
2022/02/11 09:31:00;;;;;;;9.83;3.60;;;7.40;99.90;;;;;;4966802;28;21181;-82
2022/02/11 09:33:27;;;;;;;8.30;2.80;;;7.30;99.90;;;;;;4973878;28;20803;-84
2022/02/11 09:35:54;;;;;;;7.87;2.70;;;7.30;99.90;;;;;;4987228;28;20507;-83
2022/02/11 09:38:22;;;;;;;9.40;3.37;;;7.40;99.90;;;;;;4973492;28;20441;-84
2022/02/11 09:40:53;;;;;;;11.00;2.90;;;7.40;99.90;;;;;;4966459;28;20578;-83
2022/02/11 09:43:23;;;;;;;12.27;3.60;;;7.50;99.90;;;;;;4962196;28;20487;-84
2022/02/11 09:45:52;;;;;;;11.60;2.70;;;7.50;99.90;;;;;;4966728;28;20472;-84
2022/02/11 09:48:17;;;;;;;9.70;3.03;;;7.50;99.90;;;;;;4971309;28;20536;-84
2022/02/11 09:50:43;;;;;;;8.77;3.43;;;7.50;99.90;;;;;;4988128;28;20469;-85
2022/02/11 09:53:14;;;;;;;10.47;3.30;;;7.60;99.90;;;;;;4971747;28;20205;-85
2022/02/11 09:55:42;;;;;;;8.93;2.20;;;7.80;99.90;;;;;;4971105;28;20480;-85
2022/02/11 09:58:16;;;;;;;3.77;2.00;;;8.00;99.90;;;;;;4986639;28;20499;-83
2022/02/11 10:00:48;;;;;;;9.67;4.17;;;8.00;99.90;;;;;;4986596;28;20483;-86
2022/02/11 10:03:26;;;;;;;15.20;2.70;;;8.00;99.90;;;;;;4979087;28;20435;-85
2022/02/11 10:05:59;;;;;;;7.73;3.50;;;8.30;99.90;;;;;;4984380;28;20496;-86
2022/02/11 10:08:29;;;;;;;7.23;2.60;;;8.40;99.20;;;;;;4989077;28;20440;-84
2022/02/11 10:10:58;;;;;;;11.90;2.40;;;8.70;99.50;;;;;;4988383;28;20516;-85
2022/02/11 10:13:33;;;;;;;10.27;1.90;;;9.30;98.30;;;;;;4996447;28;20456;-84
2022/02/11 10:16:10;;;;;;;12.17;3.03;;;10.40;95.40;;;;;;4994295;28;20490;-84
2022/02/11 10:18:40;;;;;;;11.07;3.00;;;10.80;93.90;;;;;;4992223;28;20512;-85
2022/02/11 10:21:20;;;;;;;5.23;2.57;;;11.00;92.50;;;;;;4984956;28;20484;-84
2022/02/11 10:23:50;;;;;;;11.93;2.87;;;10.70;91.70;;;;;;4969573;28;20453;-84
2022/02/11 10:26:19;;;;;;;13.50;3.37;;;10.00;93.00;;;;;;4986119;28;20449;-85
2022/02/11 10:28:49;;;;;;;8.00;2.90;;;9.70;94.30;;;;;;4987620;28;20499;-85
2022/02/11 10:31:15;;;;;;;11.03;3.63;;;9.20;94.60;;;;;;4970586;28;20966;-84
2022/02/11 10:33:55;;;;;;;7.13;2.70;;;8.90;95.20;;;;;;4986940;28;20466;-84
2022/02/11 10:36:28;;;;;;;6.37;2.67;;;8.60;96.00;;;;;;4967319;28;20487;-84
2022/02/11 10:39:27;;;;;;;13.07;3.10;;;8.40;96.30;;;;;;4971550;28;20472;-83
2022/02/11 10:41:55;;;;;;;3.93;2.20;;;8.30;96.60;;;;;;4971939;28;20459;-84
2022/02/11 10:44:27;;;;;;;14.23;3.80;;;8.20;96.80;;;;;;4969226;28;20480;-83
2022/02/11 10:47:00;;;;;;;7.80;3.90;;;8.30;97.20;;;;;;4970877;28;20566;-83
2022/02/11 10:49:32;;;;;;;7.40;2.20;;;8.30;96.00;;;;;;4969628;28;20511;-85
2022/02/11 10:52:21;;;;;;;9.07;2.30;;;8.30;95.60;;;;;;4984823;28;21075;-84
2022/02/11 10:54:53;;;;;;;10.60;2.67;;;8.40;95.80;;;;;;4989925;28;20478;-84
2022/02/11 10:57:27;;;;;;;6.90;2.03;;;8.30;95.40;;;;;;4976884;28;20520;-84
2022/02/11 10:59:54;;;;;;;9.17;4.30;;;8.30;94.60;;;;;;4960948;28;20484;-83
2022/02/11 11:02:23;;;;;;;9.67;3.30;;;8.30;95.20;;;;;;4983941;28;20455;-82
2022/02/11 11:04:53;;;;;;;7.40;2.30;;;8.30;95.40;;;;;;4959938;28;21230;-83
2022/02/11 11:07:25;;;;;;;6.03;2.10;;;8.30;95.80;;;;;;4981689;28;20452;-85
2022/02/11 11:10:13;;;;;;;6.73;2.10;;;8.20;95.80;;;;;;4972412;28;20444;-86
2022/02/11 11:12:54;;;;;;;5.40;1.93;;;8.30;96.30;;;;;;4971758;28;20545;-85
2022/02/11 11:15:23;;;;;;;7.77;1.90;;;8.50;96.10;;;;;;4984928;28;20485;-83
2022/02/11 11:17:51;;;;;;;8.23;2.83;;;8.40;95.80;;;;;;4971534;28;20467;-82
2022/02/11 11:20:20;;;;;;;8.60;2.77;;;8.50;96.10;;;;;;4980039;28;20515;-82
2022/02/11 11:22:54;;;;;;;13.23;2.40;;;8.40;94.60;;;;;;4975363;28;20555;-85
2022/02/11 11:25:20;;;;;;;7.57;2.33;;;8.50;94.30;;;;;;4993300;28;20459;-84
2022/02/11 11:27:51;;;;;;;5.43;2.77;;;8.60;93.60;;;;;;4970394;28;20479;-85
2022/02/11 11:30:25;;;;;;;6.43;2.43;;;8.50;93.00;;;;;;4971885;28;20500;-84
2022/02/11 11:33:06;;;;;;;5.90;2.30;;;8.50;92.40;;;;;;4972534;28;20455;-85
2022/02/11 11:35:53;;;;;;;6.97;2.13;;;8.60;92.60;;;;;;4970222;28;20491;-86
2022/02/11 11:38:24;;;;;;;7.90;2.40;;;8.70;92.80;;;;;;4955197;28;20464;-85
2022/02/11 11:41:08;;;;;;;31.87;17.93;;;8.70;92.10;;;;;;4973217;28;20491;-83
2022/02/11 11:43:38;;;;;;;4.43;2.07;;;8.70;92.10;;;;;;4964270;28;20455;-84
2022/02/11 11:46:16;;;;;;;6.93;2.77;;;8.70;91.60;;;;;;4975445;28;20456;-83
2022/02/11 11:49:03;;;;;;;5.10;2.03;;;8.70;91.30;;;;;;4976030;28;20455;-83
2022/02/11 11:51:34;;;;;;;7.73;2.43;;;8.70;91.60;;;;;;4976370;28;20820;-83
2022/02/11 11:54:31;;;;;;;7.37;3.37;;;8.80;91.90;;;;;;4982379;28;20474;-84
2022/02/11 11:57:07;;;;;;;5.43;2.90;;;8.80;91.50;;;;;;4951235;28;20510;-82
2022/02/11 11:59:41;;;;;;;11.10;2.27;;;8.80;90.90;;;;;;4983265;28;20483;-83
2022/02/11 12:02:24;;;;;;;6.00;2.80;;;8.80;90.50;;;;;;4966877;28;21107;-83
2022/02/11 12:04:55;;;;;;;6.20;2.17;;;8.70;90.00;;;;;;4967190;28;20478;-82
2022/02/11 12:07:24;;;;;;;6.30;1.97;;;8.60;87.80;;;;;;4973078;28;20443;-84
2022/02/11 12:09:56;;;;;;;4.10;2.13;;;8.50;88.50;;;;;;4973643;28;20547;-84
2022/02/11 12:12:28;;;;;;;8.03;2.33;;;8.50;88.70;;;;;;4981932;28;20461;-83
2022/02/11 12:14:57;;;;;;;10.60;2.93;;;8.50;89.00;;;;;;4995469;28;20452;-83
2022/02/11 12:17:25;;;;;;;7.07;2.30;;;8.60;89.30;;;;;;4977030;28;20969;-83
2022/02/11 12:19:53;;;;;;;10.53;2.40;;;8.80;89.70;;;;;;4969317;28;20484;-86
2022/02/11 12:22:32;;;;;;;7.53;2.30;;;8.80;89.30;;;;;;4984596;23;20564;-82
2022/02/11 12:31:39;;;;;;;13.40;3.50;;;9.00;89.00;;;;;;4948969;28;20473;-82
2022/02/11 12:34:33;;;;;;;13.33;2.17;;;9.00;86.90;;;;;;4944138;29;20464;-81
2022/02/11 12:37:24;;;;;;;7.13;2.53;;;9.20;84.60;;;;;;4940336;29;20486;-81
2022/02/11 12:40:51;;;;;;;5.70;1.60;;;9.20;81.80;;;;;;4952469;28;20489;-80
2022/02/11 12:44:05;;;;;;;7.53;2.47;;;9.10;77.70;;;;;;4897532;29;20457;-81
2022/02/11 12:46:55;;;;;;;8.77;2.77;;;9.00;77.50;;;;;;4954447;28;20521;-82
2022/02/11 12:50:14;;;;;;;7.90;2.03;;;8.90;76.90;;;;;;4939281;28;20481;-83
2022/02/11 12:53:32;;;;;;;;;;;;;;;;;;;;;
2022/02/11 12:56:58;;;;;;;;;;;;;;;;;;;;;
2022/02/11 12:59:52;;;;;;;5.70;2.10;;;9.00;76.30;;;;;;4934930;29;20457;-81
2022/02/11 13:03:20;;;;;;;6.40;2.30;;;9.30;76.50;;;;;;4947826;29;20568;-80
2022/02/11 13:05:58;;;;;;;3.20;2.00;;;9.20;75.90;;;;;;4944065;29;20461;-82
2022/02/11 13:09:21;;;;;;;7.30;2.30;;;9.20;75.60;;;;;;4942942;29;20528;-82
2022/02/11 13:12:08;;;;;;;6.67;2.00;;;9.10;75.10;;;;;;4956896;28;20871;-82
2022/02/11 13:18:26;;;;;;;6.43;2.40;;;9.00;75.50;;;;;;4938490;29;20515;-81
2022/02/11 13:21:10;;;;;;;7.87;1.80;;;9.10;75.40;;;;;;4953035;28;20465;-81
2022/02/11 13:23:45;;;;;;;3.30;2.20;;;9.10;74.80;;;;;;4947906;29;20466;-81
2022/02/11 13:26:14;;;;;;;6.63;1.87;;;9.10;74.80;;;;;;4945589;29;20474;-80
2022/02/11 13:28:49;;;;;;;4.83;1.97;;;9.20;73.90;;;;;;4952155;29;20457;-81
2022/02/11 13:31:17;;;;;;;4.07;2.80;;;9.40;73.20;;;;;;4944888;29;20489;-79
2022/02/11 13:33:45;;;;;;;7.60;2.33;;;9.80;72.50;;;;;;4938262;29;20522;-79
2022/02/11 13:36:24;;;;;;;3.50;1.70;;;9.70;70.20;;;;;;4945702;29;20489;-79
2022/02/11 13:38:50;;;;;;;3.87;1.63;;;9.80;70.10;;;;;;4932095;29;20472;-79
2022/02/11 13:44:38;;;;;;;9.53;2.63;;;9.50;70.60;;;;;;5098834;23;20583;-81
2022/02/11 13:47:15;;;;;;;5.83;2.50;;;9.30;70.10;;;;;;4959429;28;20472;-79
2022/02/11 13:49:43;;;;;;;3.50;1.57;;;9.20;70.70;;;;;;4967172;28;20458;-79
2022/02/11 13:55:00;;;;;;;8.73;2.00;;;9.40;69.60;;;;;;4954490;28;20472;-82
2022/02/11 13:57:27;;;;;;;4.33;2.00;;;9.40;69.10;;;;;;4962788;28;21037;-79
2022/02/11 13:59:54;;;;;;;5.53;1.63;;;9.20;68.00;;;;;;4965130;28;20437;-82
2022/02/11 14:02:27;;;;;;;4.23;1.47;;;9.20;68.20;;;;;;4968144;28;20477;-82
2022/02/11 14:05:06;;;;;;;6.87;2.63;;;9.20;66.90;;;;;;4966586;28;20484;-81
2022/02/11 14:07:32;;;;;;;6.93;2.00;;;9.20;67.50;;;;;;4961360;28;20523;-82
2022/02/11 14:10:15;;;;;;;5.53;1.70;;;9.00;67.80;;;;;;4961766;28;20466;-80
2022/02/11 14:12:44;;;;;;;8.30;2.13;;;9.00;68.30;;;;;;4961764;28;21090;-82
2022/02/11 14:15:11;;;;;;;5.10;2.00;;;9.00;68.60;;;;;;4957733;28;20460;-81
2022/02/11 14:17:40;;;;;;;2.40;1.67;;;9.20;66.50;;;;;;4955777;28;20489;-82
2022/02/11 14:20:07;;;;;;;6.47;2.00;;;9.10;65.90;;;;;;4957765;28;20465;-81
2022/02/11 14:22:34;;;;;;;3.17;1.90;;;9.00;66.30;;;;;;4972321;28;20476;-80
2022/02/11 14:25:01;;;;;;;5.13;2.00;;;8.90;66.80;;;;;;4971187;28;20451;-82
2022/02/11 14:27:28;;;;;;;4.87;1.60;;;8.70;66.10;;;;;;4970479;28;20515;-81
2022/02/11 14:29:56;;;;;;;5.97;1.47;;;8.70;66.50;;;;;;4984181;28;20454;-80
2022/02/11 14:32:27;;;;;;;8.20;2.13;;;8.70;65.70;;;;;;4973479;28;20472;-80
2022/02/11 14:34:53;;;;;;;2.90;2.20;;;8.80;65.60;;;;;;4960762;28;20856;-81
2022/02/11 14:37:21;;;;;;;2.93;1.53;;;8.80;64.40;;;;;;4956615;28;20488;-81
2022/02/11 14:39:47;;;;;;;7.60;1.97;;;8.90;63.20;;;;;;4954580;28;20885;-81
2022/02/11 14:42:15;;;;;;;9.97;2.07;;;8.80;61.50;;;;;;4952844;28;20485;-82
2022/02/11 14:44:41;;;;;;;3.30;1.73;;;8.80;60.70;;;;;;4954122;28;20462;-82
2022/02/11 14:47:09;;;;;;;9.40;1.73;;;8.80;59.90;;;;;;4953658;28;20477;-80
2022/02/11 14:49:38;;;;;;;5.10;2.07;;;8.80;60.50;;;;;;4954922;28;20453;-82
2022/02/11 14:52:07;;;;;;;4.80;1.60;;;8.80;59.80;;;;;;4953342;28;20513;-80
2022/02/11 14:54:35;;;;;;;6.60;2.60;;;8.70;59.50;;;;;;4959124;28;20468;-79
2022/02/11 14:57:07;;;;;;;2.77;1.60;;;8.70;59.70;;;;;;4955949;28;20547;-82
2022/02/11 14:59:33;;;;;;;7.03;1.40;;;8.70;60.00;;;;;;4942759;28;20459;-80
2022/02/11 15:02:00;;;;;;;5.73;1.87;;;8.60;60.20;;;;;;4947191;28;20540;-82
2022/02/11 15:04:27;;;;;;;3.53;1.40;;;8.60;61.20;;;;;;4941997;28;20456;-81
2022/02/11 15:06:57;;;;;;;6.67;1.80;;;8.60;61.50;;;;;;4951567;28;20540;-83
2022/02/11 15:09:24;;;;;;;3.00;1.50;;;8.60;62.10;;;;;;4955940;28;20457;-83
2022/02/11 15:11:51;;;;;;;9.43;2.03;;;8.60;62.90;;;;;;4953292;28;20484;-80
2022/02/11 15:14:22;;;;;;;5.00;1.77;;;8.60;62.50;;;;;;4961884;28;20508;-83
2022/02/11 15:16:49;;;;;;;5.17;2.23;;;8.70;62.70;;;;;;4952105;28;20488;-80
2022/02/11 15:19:17;;;;;;;7.87;1.83;;;8.80;62.70;;;;;;4956861;28;20453;-81
2022/02/11 15:21:43;;;;;;;4.93;1.27;;;8.90;61.80;;;;;;4958786;28;20482;-83
2022/02/11 15:24:11;;;;;;;4.10;1.73;;;8.80;62.20;;;;;;4960638;28;20983;-83
2022/02/11 15:26:38;;;;;;;6.77;1.90;;;8.80;62.90;;;;;;4964689;28;20459;-83
2022/02/11 15:29:05;;;;;;;6.40;2.10;;;8.90;63.30;;;;;;4959204;28;20487;-83
2022/02/11 15:31:32;;;;;;;5.90;1.87;;;8.80;63.20;;;;;;4958704;28;20482;-81
2022/02/11 15:33:59;;;;;;;3.83;2.00;;;8.90;63.40;;;;;;4958475;28;20476;-82
2022/02/11 15:36:26;;;;;;;4.80;1.97;;;8.80;63.50;;;;;;4959117;28;20496;-80
2022/02/11 15:38:53;;;;;;;5.23;1.80;;;8.70;64.50;;;;;;4974511;28;20477;-81
2022/02/11 15:41:20;;;;;;;6.43;1.83;;;8.70;65.20;;;;;;4962601;28;20491;-81
2022/02/11 15:43:48;;;;;;;4.40;1.53;;;8.70;65.30;;;;;;4965947;29;20455;-81
2022/02/11 15:46:16;;;;;;;7.13;1.83;;;8.60;65.90;;;;;;4979702;28;20477;-80
2022/02/11 15:48:43;;;;;;;3.53;1.67;;;8.60;66.60;;;;;;4965900;28;20484;-82
2022/02/11 15:51:10;;;;;;;2.40;1.40;;;8.70;66.40;;;;;;4956963;28;20516;-82
2022/02/11 15:53:38;;;;;;;6.17;1.53;;;8.60;65.20;;;;;;4952865;28;20465;-82
2022/02/11 15:56:06;;;;;;;4.27;1.37;;;8.50;64.80;;;;;;4944002;28;20452;-80
2022/02/11 15:58:33;;;;;;;2.40;1.27;;;8.50;64.90;;;;;;4950212;28;20463;-81
2022/02/11 16:01:00;;;;;;;4.43;1.53;;;8.50;64.50;;;;;;4960380;28;20503;-82
2022/02/11 16:03:27;;;;;;;3.00;2.10;;;8.50;64.30;;;;;;4974619;28;20448;-82
2022/02/11 16:05:58;;;;;;;8.10;2.80;;;8.40;63.50;;;;;;4966840;28;20469;-81
2022/02/11 16:08:24;;;;;;;10.57;5.40;;;8.40;63.10;;;;;;4969165;28;20471;-81
2022/02/11 16:10:51;;;;;;;8.33;3.70;;;8.40;63.60;;;;;;4961688;28;20465;-81
2022/02/11 16:13:18;;;;;;;6.23;3.00;;;8.40;63.70;;;;;;4966334;28;20554;-83
2022/02/11 16:15:45;;;;;;;3.07;1.40;;;8.30;63.20;;;;;;4962947;28;20949;-81
2022/02/11 16:18:15;;;;;;;3.57;1.97;;;8.20;63.00;;;;;;4955458;28;22334;-81
2022/02/11 16:20:46;;;;;;;6.40;2.00;;;8.10;63.50;;;;;;4953826;28;20492;-81
2022/02/11 16:23:16;;;;;;;4.10;1.97;;;8.10;65.20;;;;;;4953467;28;20470;-80
2022/02/11 16:25:43;;;;;;;2.83;1.20;;;8.10;64.80;;;;;;4949788;28;20474;-81
2022/02/11 16:28:13;;;;;;;6.03;1.90;;;8.00;65.50;;;;;;4967167;28;20491;-81
2022/02/11 16:30:41;;;;;;;5.33;1.67;;;8.10;65.40;;;;;;4953272;28;20724;-81
2022/02/11 16:33:08;;;;;;;4.73;2.00;;;8.00;65.40;;;;;;4950702;28;20473;-81
2022/02/11 16:35:37;;;;;;;4.43;2.00;;;8.00;65.60;;;;;;4954138;28;20470;-82
2022/02/11 16:38:05;;;;;;;6.07;2.40;;;8.10;66.10;;;;;;4951859;28;20505;-80
2022/02/11 16:40:32;;;;;;;4.77;1.50;;;8.00;66.00;;;;;;4959381;28;20435;-81
2022/02/11 16:42:59;;;;;;;6.37;2.53;;;8.00;65.90;;;;;;4971799;28;20472;-83
2022/02/11 16:45:29;;;;;;;5.30;1.60;;;8.10;66.60;;;;;;4962763;28;20466;-81
2022/02/11 16:47:56;;;;;;;8.37;2.77;;;8.10;66.20;;;;;;4965704;28;21015;-81
2022/02/11 16:50:22;;;;;;;7.57;4.07;;;8.00;66.10;;;;;;4951536;28;20459;-81
2022/02/11 16:52:49;;;;;;;4.30;1.73;;;8.00;66.70;;;;;;4969812;28;20485;-79
2022/02/11 16:55:16;;;;;;;6.40;2.90;;;8.00;67.30;;;;;;4974086;28;20523;-80
2022/02/11 16:57:43;;;;;;;5.97;2.60;;;8.10;67.10;;;;;;4966436;28;21290;-80
2022/02/11 17:00:13;;;;;;;4.87;2.40;;;8.00;67.10;;;;;;4964291;28;20456;-80
2022/02/11 17:02:40;;;;;;;4.87;1.83;;;8.00;66.80;;;;;;4948766;28;20492;-80
2022/02/11 17:05:07;;;;;;;6.10;2.60;;;8.00;66.80;;;;;;4942442;28;20466;-82
2022/02/11 17:07:34;;;;;;;5.83;2.50;;;8.10;66.70;;;;;;4945936;28;20458;-81
2022/02/11 17:10:03;;;;;;;7.20;1.90;;;8.10;65.40;;;;;;4955450;28;20465;-80
2022/02/11 17:12:31;;;;;;;4.97;2.13;;;8.10;65.50;;;;;;4951403;28;20476;-82
2022/02/11 17:14:59;;;;;;;4.73;1.80;;;8.10;65.10;;;;;;4953941;28;20458;-82
2022/02/11 17:17:25;;;;;;;6.57;2.50;;;8.10;65.30;;;;;;4952937;28;20487;-81
2022/02/11 17:19:52;;;;;;;8.77;2.30;;;8.20;65.60;;;;;;4957800;28;20951;-81
2022/02/11 17:22:21;;;;;;;5.00;2.20;;;8.10;65.20;;;;;;4974051;28;20480;-81
2022/02/11 17:24:49;;;;;;;4.20;2.03;;;8.10;65.20;;;;;;4974991;28;20485;-80
2022/02/11 17:27:17;;;;;;;4.97;2.53;;;8.00;65.40;;;;;;4957138;28;20916;-82
2022/02/11 17:29:45;;;;;;;5.87;1.90;;;7.90;65.60;;;;;;4955152;28;20464;-82
2022/02/11 17:32:13;;;;;;;2.90;1.90;;;7.90;66.40;;;;;;4994987;23;20497;-82
2022/02/11 17:34:40;;;;;;;7.53;3.63;;;7.90;66.30;;;;;;4955226;28;20471;-82
2022/02/11 17:37:08;;;;;;;5.93;2.70;;;7.90;66.60;;;;;;4951646;28;20481;-81
2022/02/11 17:39:36;;;;;;;6.97;2.10;;;8.00;66.80;;;;;;4953440;28;20525;-81
2022/02/11 17:42:05;;;;;;;5.33;2.10;;;8.10;67.10;;;;;;4952740;28;20488;-82
2022/02/11 17:44:32;;;;;;;8.17;2.40;;;8.10;67.30;;;;;;4938484;29;20458;-80
2022/02/11 17:47:00;;;;;;;3.80;1.80;;;8.10;67.20;;;;;;4956324;28;20468;-81
2022/02/11 17:49:27;;;;;;;5.90;2.10;;;8.00;67.10;;;;;;4952262;29;20951;-82
2022/02/11 17:51:56;;;;;;;3.40;1.70;;;8.00;67.40;;;;;;4937298;28;20482;-82
2022/02/11 17:54:23;;;;;;;6.57;2.27;;;8.00;67.00;;;;;;4922307;29;20470;-81
2022/02/11 17:56:51;;;;;;;3.23;1.90;;;8.00;67.50;;;;;;4920889;29;20514;-82
2022/02/11 17:59:18;;;;;;;5.60;2.90;;;8.00;67.80;;;;;;4921063;29;20465;-81
2022/02/11 18:01:44;;;;;;;5.00;2.97;;;8.00;67.70;;;;;;4924809;28;20500;-82
2022/02/11 18:04:14;;;;;;;3.50;2.27;;;7.90;67.70;;;;;;4936794;29;20526;-82
2022/02/11 18:06:41;;;;;;;8.27;2.97;;;7.90;67.70;;;;;;4947351;28;20462;-80
2022/02/11 18:09:08;;;;;;;11.27;1.93;;;7.90;67.90;;;;;;4938951;29;20449;-82
2022/02/11 18:11:35;;;;;;;4.90;2.50;;;7.90;68.40;;;;;;4941217;29;20527;-81
2022/02/11 18:14:04;;;;;;;8.20;2.70;;;7.90;68.90;;;;;;4945427;29;20438;-81
2022/02/11 18:16:31;;;;;;;7.07;2.23;;;7.90;69.00;;;;;;4971992;28;20446;-81
2022/02/11 18:18:58;;;;;;;6.07;3.00;;;7.80;68.70;;;;;;4952631;28;20479;-82
2022/02/11 18:24:27;;;;;;;5.57;2.30;;;7.80;68.70;;;;;;4958403;28;20453;-86
2022/02/11 18:27:01;;;;;;;8.27;1.80;;;7.80;68.90;;;;;;4957352;28;20462;-85
2022/02/11 18:29:36;;;;;;;6.47;1.87;;;7.90;69.10;;;;;;4974474;28;20977;-85
2022/02/11 18:32:09;;;;;;;6.37;3.00;;;7.80;69.10;;;;;;4965922;28;20480;-86
2022/02/11 18:34:47;;;;;;;5.70;2.47;;;7.80;69.90;;;;;;4989469;28;20429;-86
2022/02/11 18:37:18;;;;;;;6.23;3.33;;;7.90;70.30;;;;;;4987091;28;20487;-86
2022/02/11 18:39:54;;;;;;;4.77;2.10;;;7.90;69.90;;;;;;4993279;28;20441;-87
2022/02/11 18:42:37;;;;;;;4.43;2.10;;;8.00;69.90;;;;;;4990429;28;20473;-86